sensor_id;sensor_type;location;lat;lon;timestamp;P1;durP1;ratioP1;P2;durP2;ratioP2
54328;SDS011;40710;51.120;13.136;2023-07-16T00:01:02;4.86;;;4.86;;
54328;SDS011;40710;51.120;13.136;2023-07-16T00:03:27;4.58;;;4.58;;
54328;SDS011;40710;51.120;13.136;2023-07-16T00:05:51;4.56;;;4.56;;
54328;SDS011;40710;51.120;13.136;2023-07-16T00:08:16;4.43;;;4.43;;
54328;SDS011;40710;51.120;13.136;2023-07-16T00:10:40;4.47;;;4.47;;
54328;SDS011;40710;51.120;13.136;2023-07-16T00:13:05;4.96;;;4.96;;
54328;SDS011;40710;51.120;13.136;2023-07-16T00:15:30;4.82;;;4.82;;
54328;SDS011;40710;51.120;13.136;2023-07-16T00:17:54;4.44;;;4.44;;
54328;SDS011;40710;51.120;13.136;2023-07-16T00:20:19;4.73;;;4.73;;
54328;SDS011;40710;51.120;13.136;2023-07-16T00:22:44;4.07;;;4.07;;
54328;SDS011;40710;51.120;13.136;2023-07-16T00:25:08;3.46;;;3.46;;
54328;SDS011;40710;51.120;13.136;2023-07-16T00:27:33;2.68;;;2.68;;
54328;SDS011;40710;51.120;13.136;2023-07-16T00:29:57;2.65;;;2.65;;
54328;SDS011;40710;51.120;13.136;2023-07-16T00:32:22;2.36;;;2.36;;
54328;SDS011;40710;51.120;13.136;2023-07-16T00:34:47;2.01;;;2.01;;
54328;SDS011;40710;51.120;13.136;2023-07-16T00:37:11;2.16;;;2.16;;
54328;SDS011;40710;51.120;13.136;2023-07-16T00:39:36;2.11;;;2.11;;
54328;SDS011;40710;51.120;13.136;2023-07-16T00:42:00;1.81;;;1.81;;
54328;SDS011;40710;51.120;13.136;2023-07-16T00:44:25;1.85;;;1.85;;
54328;SDS011;40710;51.120;13.136;2023-07-16T00:46:50;1.67;;;1.67;;
54328;SDS011;40710;51.120;13.136;2023-07-16T00:49:15;1.65;;;1.65;;
54328;SDS011;40710;51.120;13.136;2023-07-16T00:51:40;1.52;;;1.52;;
54328;SDS011;40710;51.120;13.136;2023-07-16T00:54:06;1.58;;;1.58;;
54328;SDS011;40710;51.120;13.136;2023-07-16T00:56:31;1.46;;;1.46;;
54328;SDS011;40710;51.120;13.136;2023-07-16T00:58:56;1.56;;;1.56;;
54328;SDS011;40710;51.120;13.136;2023-07-16T01:01:20;1.54;;;1.54;;
54328;SDS011;40710;51.120;13.136;2023-07-16T01:03:45;1.34;;;1.34;;
54328;SDS011;40710;51.120;13.136;2023-07-16T01:06:11;1.41;;;1.41;;
54328;SDS011;40710;51.120;13.136;2023-07-16T01:08:45;1.47;;;1.47;;
54328;SDS011;40710;51.120;13.136;2023-07-16T01:11:23;1.28;;;1.28;;
54328;SDS011;40710;51.120;13.136;2023-07-16T01:13:48;1.41;;;1.41;;
54328;SDS011;40710;51.120;13.136;2023-07-16T01:16:17;1.42;;;1.42;;
54328;SDS011;40710;51.120;13.136;2023-07-16T01:18:43;1.37;;;1.37;;
54328;SDS011;40710;51.120;13.136;2023-07-16T01:21:08;1.30;;;1.30;;
54328;SDS011;40710;51.120;13.136;2023-07-16T01:26:08;1.32;;;1.32;;
54328;SDS011;40710;51.120;13.136;2023-07-16T01:31:32;1.40;;;1.40;;
54328;SDS011;40710;51.120;13.136;2023-07-16T01:33:58;1.46;;;1.46;;
54328;SDS011;40710;51.120;13.136;2023-07-16T01:36:25;1.19;;;1.19;;
54328;SDS011;40710;51.120;13.136;2023-07-16T01:38:52;1.42;;;1.42;;
54328;SDS011;40710;51.120;13.136;2023-07-16T01:41:17;1.35;;;1.35;;
54328;SDS011;40710;51.120;13.136;2023-07-16T01:43:42;1.50;;;1.50;;
54328;SDS011;40710;51.120;13.136;2023-07-16T01:46:07;1.41;;;1.41;;
54328;SDS011;40710;51.120;13.136;2023-07-16T01:48:35;1.29;;;1.29;;
54328;SDS011;40710;51.120;13.136;2023-07-16T01:51:01;1.32;;;1.32;;
54328;SDS011;40710;51.120;13.136;2023-07-16T01:53:27;1.49;;;1.49;;
54328;SDS011;40710;51.120;13.136;2023-07-16T01:55:51;1.53;;;1.53;;
54328;SDS011;40710;51.120;13.136;2023-07-16T01:58:16;1.57;;;1.57;;
54328;SDS011;40710;51.120;13.136;2023-07-16T02:00:41;1.46;;;1.46;;
54328;SDS011;40710;51.120;13.136;2023-07-16T02:03:05;1.55;;;1.55;;
54328;SDS011;40710;51.120;13.136;2023-07-16T02:05:30;1.63;;;1.63;;
54328;SDS011;40710;51.120;13.136;2023-07-16T02:07:54;1.80;;;1.80;;
54328;SDS011;40710;51.120;13.136;2023-07-16T02:10:19;1.79;;;1.79;;
54328;SDS011;40710;51.120;13.136;2023-07-16T02:12:44;1.81;;;1.81;;
54328;SDS011;40710;51.120;13.136;2023-07-16T02:15:08;1.86;;;1.86;;
54328;SDS011;40710;51.120;13.136;2023-07-16T02:17:33;1.79;;;1.79;;
54328;SDS011;40710;51.120;13.136;2023-07-16T02:19:57;1.87;;;1.87;;
54328;SDS011;40710;51.120;13.136;2023-07-16T02:22:22;1.93;;;1.93;;
54328;SDS011;40710;51.120;13.136;2023-07-16T02:24:46;2.07;;;2.07;;
54328;SDS011;40710;51.120;13.136;2023-07-16T02:27:11;2.08;;;2.08;;
54328;SDS011;40710;51.120;13.136;2023-07-16T02:29:36;1.97;;;1.97;;
54328;SDS011;40710;51.120;13.136;2023-07-16T02:32:00;2.08;;;2.08;;
54328;SDS011;40710;51.120;13.136;2023-07-16T02:34:25;2.08;;;2.08;;
54328;SDS011;40710;51.120;13.136;2023-07-16T02:36:49;1.88;;;1.88;;
54328;SDS011;40710;51.120;13.136;2023-07-16T02:39:14;2.36;;;2.36;;
54328;SDS011;40710;51.120;13.136;2023-07-16T02:41:38;2.28;;;2.28;;
54328;SDS011;40710;51.120;13.136;2023-07-16T02:44:05;2.36;;;2.36;;
54328;SDS011;40710;51.120;13.136;2023-07-16T02:46:30;2.29;;;2.29;;
54328;SDS011;40710;51.120;13.136;2023-07-16T02:48:55;2.23;;;2.23;;
54328;SDS011;40710;51.120;13.136;2023-07-16T02:51:20;2.47;;;2.47;;
54328;SDS011;40710;51.120;13.136;2023-07-16T02:53:44;2.38;;;2.38;;
54328;SDS011;40710;51.120;13.136;2023-07-16T02:56:09;2.54;;;2.54;;
54328;SDS011;40710;51.120;13.136;2023-07-16T02:58:33;2.42;;;2.42;;
54328;SDS011;40710;51.120;13.136;2023-07-16T03:00:58;2.55;;;2.55;;
54328;SDS011;40710;51.120;13.136;2023-07-16T03:03:22;2.65;;;2.65;;
54328;SDS011;40710;51.120;13.136;2023-07-16T03:05:47;2.67;;;2.67;;
54328;SDS011;40710;51.120;13.136;2023-07-16T03:08:11;2.89;;;2.89;;
54328;SDS011;40710;51.120;13.136;2023-07-16T03:10:36;2.75;;;2.75;;
54328;SDS011;40710;51.120;13.136;2023-07-16T03:13:00;2.68;;;2.68;;
54328;SDS011;40710;51.120;13.136;2023-07-16T03:15:25;2.75;;;2.75;;
54328;SDS011;40710;51.120;13.136;2023-07-16T03:17:49;2.75;;;2.75;;
54328;SDS011;40710;51.120;13.136;2023-07-16T03:20:14;2.99;;;2.99;;
54328;SDS011;40710;51.120;13.136;2023-07-16T03:22:39;3.01;;;3.01;;
54328;SDS011;40710;51.120;13.136;2023-07-16T03:25:03;3.08;;;3.08;;
54328;SDS011;40710;51.120;13.136;2023-07-16T03:27:29;3.11;;;3.11;;
54328;SDS011;40710;51.120;13.136;2023-07-16T03:29:53;3.04;;;3.04;;
54328;SDS011;40710;51.120;13.136;2023-07-16T03:32:18;2.99;;;2.99;;
54328;SDS011;40710;51.120;13.136;2023-07-16T03:34:42;3.18;;;3.18;;
54328;SDS011;40710;51.120;13.136;2023-07-16T03:37:07;3.23;;;3.23;;
54328;SDS011;40710;51.120;13.136;2023-07-16T03:39:31;3.09;;;3.09;;
54328;SDS011;40710;51.120;13.136;2023-07-16T03:41:56;3.28;;;3.28;;
54328;SDS011;40710;51.120;13.136;2023-07-16T03:44:20;3.25;;;3.25;;
54328;SDS011;40710;51.120;13.136;2023-07-16T03:46:45;3.23;;;3.23;;
54328;SDS011;40710;51.120;13.136;2023-07-16T03:49:09;3.37;;;3.37;;
54328;SDS011;40710;51.120;13.136;2023-07-16T03:51:35;3.32;;;3.32;;
54328;SDS011;40710;51.120;13.136;2023-07-16T03:53:59;3.48;;;3.48;;
54328;SDS011;40710;51.120;13.136;2023-07-16T03:56:24;3.31;;;3.31;;
54328;SDS011;40710;51.120;13.136;2023-07-16T03:58:48;3.09;;;3.09;;
54328;SDS011;40710;51.120;13.136;2023-07-16T04:01:13;3.25;;;3.25;;
54328;SDS011;40710;51.120;13.136;2023-07-16T04:03:37;3.24;;;3.24;;
54328;SDS011;40710;51.120;13.136;2023-07-16T04:06:03;3.36;;;3.36;;
54328;SDS011;40710;51.120;13.136;2023-07-16T04:08:29;3.15;;;3.15;;
54328;SDS011;40710;51.120;13.136;2023-07-16T04:10:54;3.17;;;3.17;;
54328;SDS011;40710;51.120;13.136;2023-07-16T04:13:18;3.28;;;3.28;;
54328;SDS011;40710;51.120;13.136;2023-07-16T04:15:43;3.23;;;3.23;;
54328;SDS011;40710;51.120;13.136;2023-07-16T04:18:07;3.22;;;3.22;;
54328;SDS011;40710;51.120;13.136;2023-07-16T04:20:32;3.28;;;3.28;;
54328;SDS011;40710;51.120;13.136;2023-07-16T04:22:57;3.28;;;3.28;;
54328;SDS011;40710;51.120;13.136;2023-07-16T04:25:22;3.10;;;3.10;;
54328;SDS011;40710;51.120;13.136;2023-07-16T04:27:47;3.44;;;3.44;;
54328;SDS011;40710;51.120;13.136;2023-07-16T04:30:11;3.32;;;3.32;;
54328;SDS011;40710;51.120;13.136;2023-07-16T04:32:36;3.14;;;3.14;;
54328;SDS011;40710;51.120;13.136;2023-07-16T04:35:00;3.20;;;3.20;;
54328;SDS011;40710;51.120;13.136;2023-07-16T04:37:25;3.10;;;3.10;;
54328;SDS011;40710;51.120;13.136;2023-07-16T04:39:50;3.07;;;3.07;;
54328;SDS011;40710;51.120;13.136;2023-07-16T04:42:14;2.91;;;2.91;;
54328;SDS011;40710;51.120;13.136;2023-07-16T04:44:40;3.23;;;3.23;;
54328;SDS011;40710;51.120;13.136;2023-07-16T04:47:05;3.27;;;3.27;;
54328;SDS011;40710;51.120;13.136;2023-07-16T04:49:29;3.09;;;3.09;;
54328;SDS011;40710;51.120;13.136;2023-07-16T04:51:54;2.86;;;2.86;;
54328;SDS011;40710;51.120;13.136;2023-07-16T04:54:18;2.87;;;2.87;;
54328;SDS011;40710;51.120;13.136;2023-07-16T04:56:43;2.88;;;2.88;;
54328;SDS011;40710;51.120;13.136;2023-07-16T04:59:08;2.73;;;2.73;;
54328;SDS011;40710;51.120;13.136;2023-07-16T05:01:32;3.04;;;3.04;;
54328;SDS011;40710;51.120;13.136;2023-07-16T05:03:57;3.13;;;3.13;;
54328;SDS011;40710;51.120;13.136;2023-07-16T05:06:21;2.83;;;2.83;;
54328;SDS011;40710;51.120;13.136;2023-07-16T05:08:46;2.90;;;2.90;;
54328;SDS011;40710;51.120;13.136;2023-07-16T05:11:11;3.02;;;3.02;;
54328;SDS011;40710;51.120;13.136;2023-07-16T05:13:36;2.85;;;2.85;;
54328;SDS011;40710;51.120;13.136;2023-07-16T05:16:01;2.83;;;2.83;;
54328;SDS011;40710;51.120;13.136;2023-07-16T05:18:25;2.70;;;2.70;;
54328;SDS011;40710;51.120;13.136;2023-07-16T05:20:50;2.81;;;2.81;;
54328;SDS011;40710;51.120;13.136;2023-07-16T05:23:15;2.83;;;2.83;;
54328;SDS011;40710;51.120;13.136;2023-07-16T05:25:44;2.72;;;2.72;;
54328;SDS011;40710;51.120;13.136;2023-07-16T05:28:09;2.83;;;2.83;;
54328;SDS011;40710;51.120;13.136;2023-07-16T05:30:34;2.89;;;2.89;;
54328;SDS011;40710;51.120;13.136;2023-07-16T05:32:58;2.76;;;2.76;;
54328;SDS011;40710;51.120;13.136;2023-07-16T05:35:23;2.81;;;2.81;;
54328;SDS011;40710;51.120;13.136;2023-07-16T05:37:48;2.89;;;2.89;;
54328;SDS011;40710;51.120;13.136;2023-07-16T05:40:12;2.61;;;2.61;;
54328;SDS011;40710;51.120;13.136;2023-07-16T05:42:37;2.71;;;2.71;;
54328;SDS011;40710;51.120;13.136;2023-07-16T05:45:01;2.69;;;2.69;;
54328;SDS011;40710;51.120;13.136;2023-07-16T05:47:27;2.54;;;2.54;;
54328;SDS011;40710;51.120;13.136;2023-07-16T05:49:51;2.43;;;2.43;;
54328;SDS011;40710;51.120;13.136;2023-07-16T05:52:16;2.51;;;2.51;;
54328;SDS011;40710;51.120;13.136;2023-07-16T05:54:40;2.54;;;2.54;;
54328;SDS011;40710;51.120;13.136;2023-07-16T05:57:07;2.65;;;2.65;;
54328;SDS011;40710;51.120;13.136;2023-07-16T05:59:32;2.53;;;2.53;;
54328;SDS011;40710;51.120;13.136;2023-07-16T06:02:00;2.47;;;2.47;;
54328;SDS011;40710;51.120;13.136;2023-07-16T06:04:25;2.58;;;2.58;;
54328;SDS011;40710;51.120;13.136;2023-07-16T06:06:49;2.25;;;2.25;;
54328;SDS011;40710;51.120;13.136;2023-07-16T06:09:14;2.44;;;2.44;;
54328;SDS011;40710;51.120;13.136;2023-07-16T06:11:38;2.35;;;2.35;;
54328;SDS011;40710;51.120;13.136;2023-07-16T06:14:03;2.57;;;2.57;;
54328;SDS011;40710;51.120;13.136;2023-07-16T06:16:28;2.85;;;2.85;;
54328;SDS011;40710;51.120;13.136;2023-07-16T06:18:52;2.60;;;2.60;;
54328;SDS011;40710;51.120;13.136;2023-07-16T06:21:18;2.58;;;2.58;;
54328;SDS011;40710;51.120;13.136;2023-07-16T06:23:42;2.63;;;2.63;;
54328;SDS011;40710;51.120;13.136;2023-07-16T06:26:07;2.88;;;2.88;;
54328;SDS011;40710;51.120;13.136;2023-07-16T06:28:32;2.36;;;2.36;;
54328;SDS011;40710;51.120;13.136;2023-07-16T06:30:56;2.43;;;2.43;;
54328;SDS011;40710;51.120;13.136;2023-07-16T06:33:21;2.59;;;2.59;;
54328;SDS011;40710;51.120;13.136;2023-07-16T06:35:46;2.36;;;2.36;;
54328;SDS011;40710;51.120;13.136;2023-07-16T06:38:11;2.43;;;2.43;;
54328;SDS011;40710;51.120;13.136;2023-07-16T06:40:36;2.36;;;2.36;;
54328;SDS011;40710;51.120;13.136;2023-07-16T06:43:00;2.30;;;2.30;;
54328;SDS011;40710;51.120;13.136;2023-07-16T06:45:25;2.37;;;2.37;;
54328;SDS011;40710;51.120;13.136;2023-07-16T06:47:49;2.66;;;2.66;;
54328;SDS011;40710;51.120;13.136;2023-07-16T06:50:14;2.49;;;2.49;;
54328;SDS011;40710;51.120;13.136;2023-07-16T06:52:38;2.71;;;2.71;;
54328;SDS011;40710;51.120;13.136;2023-07-16T06:55:03;2.72;;;2.72;;
54328;SDS011;40710;51.120;13.136;2023-07-16T06:57:28;2.60;;;2.60;;
54328;SDS011;40710;51.120;13.136;2023-07-16T06:59:52;2.63;;;2.63;;
54328;SDS011;40710;51.120;13.136;2023-07-16T07:02:17;2.65;;;2.65;;
54328;SDS011;40710;51.120;13.136;2023-07-16T07:04:43;2.65;;;2.65;;
54328;SDS011;40710;51.120;13.136;2023-07-16T07:07:07;2.71;;;2.71;;
54328;SDS011;40710;51.120;13.136;2023-07-16T07:09:32;2.68;;;2.68;;
54328;SDS011;40710;51.120;13.136;2023-07-16T07:11:56;2.71;;;2.71;;
54328;SDS011;40710;51.120;13.136;2023-07-16T07:14:21;2.84;;;2.84;;
54328;SDS011;40710;51.120;13.136;2023-07-16T07:16:45;2.85;;;2.85;;
54328;SDS011;40710;51.120;13.136;2023-07-16T07:19:10;2.79;;;2.79;;
54328;SDS011;40710;51.120;13.136;2023-07-16T07:21:34;2.86;;;2.86;;
54328;SDS011;40710;51.120;13.136;2023-07-16T07:23:59;2.72;;;2.72;;
54328;SDS011;40710;51.120;13.136;2023-07-16T07:26:24;2.69;;;2.69;;
54328;SDS011;40710;51.120;13.136;2023-07-16T07:28:49;2.89;;;2.89;;
54328;SDS011;40710;51.120;13.136;2023-07-16T07:31:14;2.98;;;2.98;;
54328;SDS011;40710;51.120;13.136;2023-07-16T07:33:38;2.92;;;2.92;;
54328;SDS011;40710;51.120;13.136;2023-07-16T07:36:03;2.95;;;2.95;;
54328;SDS011;40710;51.120;13.136;2023-07-16T07:38:27;2.96;;;2.96;;
54328;SDS011;40710;51.120;13.136;2023-07-16T07:40:52;2.84;;;2.84;;
54328;SDS011;40710;51.120;13.136;2023-07-16T07:43:17;2.55;;;2.55;;
54328;SDS011;40710;51.120;13.136;2023-07-16T07:45:41;2.70;;;2.70;;
54328;SDS011;40710;51.120;13.136;2023-07-16T07:48:06;2.72;;;2.72;;
54328;SDS011;40710;51.120;13.136;2023-07-16T07:50:30;2.99;;;2.99;;
54328;SDS011;40710;51.120;13.136;2023-07-16T07:52:55;2.54;;;2.54;;
54328;SDS011;40710;51.120;13.136;2023-07-16T07:55:19;2.48;;;2.48;;
54328;SDS011;40710;51.120;13.136;2023-07-16T07:57:44;2.40;;;2.40;;
54328;SDS011;40710;51.120;13.136;2023-07-16T08:00:09;2.42;;;2.42;;
54328;SDS011;40710;51.120;13.136;2023-07-16T08:02:35;2.39;;;2.39;;
54328;SDS011;40710;51.120;13.136;2023-07-16T08:05:00;2.25;;;2.25;;
54328;SDS011;40710;51.120;13.136;2023-07-16T08:07:24;2.26;;;2.26;;
54328;SDS011;40710;51.120;13.136;2023-07-16T08:09:50;2.31;;;2.31;;
54328;SDS011;40710;51.120;13.136;2023-07-16T08:12:15;2.06;;;2.06;;
54328;SDS011;40710;51.120;13.136;2023-07-16T08:14:39;1.92;;;1.92;;
54328;SDS011;40710;51.120;13.136;2023-07-16T08:17:05;2.19;;;2.19;;
54328;SDS011;40710;51.120;13.136;2023-07-16T08:19:30;2.42;;;2.42;;
54328;SDS011;40710;51.120;13.136;2023-07-16T08:21:55;2.24;;;2.24;;
54328;SDS011;40710;51.120;13.136;2023-07-16T08:24:19;2.31;;;2.31;;
54328;SDS011;40710;51.120;13.136;2023-07-16T08:26:44;1.95;;;1.95;;
54328;SDS011;40710;51.120;13.136;2023-07-16T08:29:09;2.19;;;2.19;;
54328;SDS011;40710;51.120;13.136;2023-07-16T08:31:33;2.44;;;2.44;;
54328;SDS011;40710;51.120;13.136;2023-07-16T08:33:58;2.19;;;2.19;;
54328;SDS011;40710;51.120;13.136;2023-07-16T08:36:22;2.42;;;2.42;;
54328;SDS011;40710;51.120;13.136;2023-07-16T08:38:47;2.26;;;2.26;;
54328;SDS011;40710;51.120;13.136;2023-07-16T08:41:11;2.49;;;2.49;;
54328;SDS011;40710;51.120;13.136;2023-07-16T08:43:36;2.25;;;2.25;;
54328;SDS011;40710;51.120;13.136;2023-07-16T08:46:02;2.22;;;2.22;;
54328;SDS011;40710;51.120;13.136;2023-07-16T08:48:27;2.09;;;2.09;;
54328;SDS011;40710;51.120;13.136;2023-07-16T08:50:53;2.25;;;2.25;;
54328;SDS011;40710;51.120;13.136;2023-07-16T08:53:21;2.31;;;2.31;;
54328;SDS011;40710;51.120;13.136;2023-07-16T08:55:46;2.23;;;2.23;;
54328;SDS011;40710;51.120;13.136;2023-07-16T08:58:12;2.28;;;2.28;;
54328;SDS011;40710;51.120;13.136;2023-07-16T09:00:39;2.37;;;2.37;;
54328;SDS011;40710;51.120;13.136;2023-07-16T09:03:04;2.45;;;2.45;;
54328;SDS011;40710;51.120;13.136;2023-07-16T09:05:28;2.27;;;2.27;;
54328;SDS011;40710;51.120;13.136;2023-07-16T09:07:53;2.45;;;2.45;;
54328;SDS011;40710;51.120;13.136;2023-07-16T09:10:18;2.50;;;2.50;;
54328;SDS011;40710;51.120;13.136;2023-07-16T09:12:43;2.44;;;2.44;;
54328;SDS011;40710;51.120;13.136;2023-07-16T09:15:08;3.20;;;3.20;;
54328;SDS011;40710;51.120;13.136;2023-07-16T09:17:33;2.62;;;2.62;;
54328;SDS011;40710;51.120;13.136;2023-07-16T09:20:02;2.28;;;2.28;;
54328;SDS011;40710;51.120;13.136;2023-07-16T09:22:27;2.57;;;2.57;;
54328;SDS011;40710;51.120;13.136;2023-07-16T09:24:51;2.59;;;2.59;;
54328;SDS011;40710;51.120;13.136;2023-07-16T09:27:16;2.76;;;2.76;;
54328;SDS011;40710;51.120;13.136;2023-07-16T09:29:40;2.59;;;2.59;;
54328;SDS011;40710;51.120;13.136;2023-07-16T09:32:05;2.42;;;2.42;;
54328;SDS011;40710;51.120;13.136;2023-07-16T09:34:30;2.66;;;2.66;;
54328;SDS011;40710;51.120;13.136;2023-07-16T09:36:56;2.84;;;2.84;;
54328;SDS011;40710;51.120;13.136;2023-07-16T09:39:25;2.70;;;2.70;;
54328;SDS011;40710;51.120;13.136;2023-07-16T09:41:51;2.70;;;2.70;;
54328;SDS011;40710;51.120;13.136;2023-07-16T09:44:16;2.68;;;2.68;;
54328;SDS011;40710;51.120;13.136;2023-07-16T09:46:42;2.63;;;2.63;;
54328;SDS011;40710;51.120;13.136;2023-07-16T09:49:07;2.67;;;2.67;;
54328;SDS011;40710;51.120;13.136;2023-07-16T09:51:33;2.91;;;2.91;;
54328;SDS011;40710;51.120;13.136;2023-07-16T09:54:01;2.73;;;2.73;;
54328;SDS011;40710;51.120;13.136;2023-07-16T09:56:26;2.69;;;2.69;;
54328;SDS011;40710;51.120;13.136;2023-07-16T09:58:59;2.63;;;2.63;;
54328;SDS011;40710;51.120;13.136;2023-07-16T10:01:26;2.51;;;2.51;;
54328;SDS011;40710;51.120;13.136;2023-07-16T10:03:52;2.29;;;2.29;;
54328;SDS011;40710;51.120;13.136;2023-07-16T10:06:17;2.28;;;2.28;;
54328;SDS011;40710;51.120;13.136;2023-07-16T10:08:48;2.39;;;2.39;;
54328;SDS011;40710;51.120;13.136;2023-07-16T10:11:15;2.21;;;2.21;;
54328;SDS011;40710;51.120;13.136;2023-07-16T10:13:41;2.40;;;2.40;;
54328;SDS011;40710;51.120;13.136;2023-07-16T10:16:05;2.29;;;2.29;;
54328;SDS011;40710;51.120;13.136;2023-07-16T10:18:32;2.34;;;2.34;;
54328;SDS011;40710;51.120;13.136;2023-07-16T10:21:02;2.32;;;2.32;;
54328;SDS011;40710;51.120;13.136;2023-07-16T10:23:41;2.35;;;2.35;;
54328;SDS011;40710;51.120;13.136;2023-07-16T10:26:08;2.36;;;2.36;;
54328;SDS011;40710;51.120;13.136;2023-07-16T10:28:35;2.42;;;2.42;;
54328;SDS011;40710;51.120;13.136;2023-07-16T10:31:00;2.15;;;2.15;;
54328;SDS011;40710;51.120;13.136;2023-07-16T10:33:25;2.26;;;2.26;;
54328;SDS011;40710;51.120;13.136;2023-07-16T10:35:50;2.31;;;2.31;;
54328;SDS011;40710;51.120;13.136;2023-07-16T10:38:14;2.37;;;2.37;;
54328;SDS011;40710;51.120;13.136;2023-07-16T10:40:39;2.17;;;2.17;;
54328;SDS011;40710;51.120;13.136;2023-07-16T10:43:05;2.59;;;2.59;;
54328;SDS011;40710;51.120;13.136;2023-07-16T10:45:30;2.42;;;2.42;;
54328;SDS011;40710;51.120;13.136;2023-07-16T10:47:54;2.13;;;2.13;;
54328;SDS011;40710;51.120;13.136;2023-07-16T10:50:19;2.39;;;2.39;;
54328;SDS011;40710;51.120;13.136;2023-07-16T10:52:46;2.49;;;2.49;;
54328;SDS011;40710;51.120;13.136;2023-07-16T10:55:15;2.56;;;2.56;;
54328;SDS011;40710;51.120;13.136;2023-07-16T10:57:40;2.63;;;2.63;;
54328;SDS011;40710;51.120;13.136;2023-07-16T11:00:05;2.50;;;2.50;;
54328;SDS011;40710;51.120;13.136;2023-07-16T11:02:29;2.45;;;2.45;;
54328;SDS011;40710;51.120;13.136;2023-07-16T11:04:54;2.35;;;2.35;;
54328;SDS011;40710;51.120;13.136;2023-07-16T11:07:19;2.62;;;2.62;;
54328;SDS011;40710;51.120;13.136;2023-07-16T11:09:46;2.56;;;2.56;;
54328;SDS011;40710;51.120;13.136;2023-07-16T11:12:13;2.56;;;2.56;;
54328;SDS011;40710;51.120;13.136;2023-07-16T11:14:42;2.47;;;2.47;;
54328;SDS011;40710;51.120;13.136;2023-07-16T11:17:08;2.74;;;2.74;;
54328;SDS011;40710;51.120;13.136;2023-07-16T11:19:35;2.85;;;2.85;;
54328;SDS011;40710;51.120;13.136;2023-07-16T11:22:01;2.92;;;2.92;;
54328;SDS011;40710;51.120;13.136;2023-07-16T11:24:27;2.92;;;2.92;;
54328;SDS011;40710;51.120;13.136;2023-07-16T11:26:53;3.15;;;3.15;;
54328;SDS011;40710;51.120;13.136;2023-07-16T11:29:21;2.91;;;2.91;;
54328;SDS011;40710;51.120;13.136;2023-07-16T11:31:49;2.85;;;2.85;;
54328;SDS011;40710;51.120;13.136;2023-07-16T11:34:15;3.15;;;3.15;;
54328;SDS011;40710;51.120;13.136;2023-07-16T11:36:41;2.79;;;2.79;;
54328;SDS011;40710;51.120;13.136;2023-07-16T11:39:05;3.11;;;3.11;;
54328;SDS011;40710;51.120;13.136;2023-07-16T11:41:30;2.89;;;2.89;;
54328;SDS011;40710;51.120;13.136;2023-07-16T11:43:58;2.98;;;2.98;;
54328;SDS011;40710;51.120;13.136;2023-07-16T11:46:24;2.92;;;2.92;;
54328;SDS011;40710;51.120;13.136;2023-07-16T11:48:48;2.95;;;2.95;;
54328;SDS011;40710;51.120;13.136;2023-07-16T11:51:13;3.07;;;3.07;;
54328;SDS011;40710;51.120;13.136;2023-07-16T11:53:37;3.02;;;3.02;;
54328;SDS011;40710;51.120;13.136;2023-07-16T11:56:02;3.00;;;3.00;;
54328;SDS011;40710;51.120;13.136;2023-07-16T11:58:27;3.00;;;3.00;;
54328;SDS011;40710;51.120;13.136;2023-07-16T12:00:51;3.15;;;3.15;;
54328;SDS011;40710;51.120;13.136;2023-07-16T12:03:16;2.95;;;2.95;;
54328;SDS011;40710;51.120;13.136;2023-07-16T12:05:40;2.97;;;2.97;;
54328;SDS011;40710;51.120;13.136;2023-07-16T12:08:05;2.93;;;2.93;;
54328;SDS011;40710;51.120;13.136;2023-07-16T12:10:29;2.98;;;2.98;;
54328;SDS011;40710;51.120;13.136;2023-07-16T12:12:54;2.99;;;2.99;;
54328;SDS011;40710;51.120;13.136;2023-07-16T12:15:18;2.99;;;2.99;;
54328;SDS011;40710;51.120;13.136;2023-07-16T12:17:43;3.05;;;3.05;;
54328;SDS011;40710;51.120;13.136;2023-07-16T12:20:07;3.00;;;3.00;;
54328;SDS011;40710;51.120;13.136;2023-07-16T12:22:32;2.96;;;2.96;;
54328;SDS011;40710;51.120;13.136;2023-07-16T12:24:57;3.05;;;3.05;;
54328;SDS011;40710;51.120;13.136;2023-07-16T12:27:21;3.17;;;3.17;;
54328;SDS011;40710;51.120;13.136;2023-07-16T12:29:46;3.03;;;3.03;;
54328;SDS011;40710;51.120;13.136;2023-07-16T12:32:10;3.17;;;3.17;;
54328;SDS011;40710;51.120;13.136;2023-07-16T12:34:35;3.05;;;3.05;;
54328;SDS011;40710;51.120;13.136;2023-07-16T12:37:00;3.19;;;3.19;;
54328;SDS011;40710;51.120;13.136;2023-07-16T12:39:25;2.95;;;2.95;;
54328;SDS011;40710;51.120;13.136;2023-07-16T12:41:49;2.91;;;2.91;;
54328;SDS011;40710;51.120;13.136;2023-07-16T12:44:14;2.89;;;2.89;;
54328;SDS011;40710;51.120;13.136;2023-07-16T12:46:38;3.07;;;3.07;;
54328;SDS011;40710;51.120;13.136;2023-07-16T12:49:03;3.01;;;3.01;;
54328;SDS011;40710;51.120;13.136;2023-07-16T12:51:27;3.22;;;3.22;;
54328;SDS011;40710;51.120;13.136;2023-07-16T12:53:52;3.15;;;3.15;;
54328;SDS011;40710;51.120;13.136;2023-07-16T12:56:16;3.11;;;3.11;;
54328;SDS011;40710;51.120;13.136;2023-07-16T12:58:41;3.37;;;3.37;;
54328;SDS011;40710;51.120;13.136;2023-07-16T13:01:05;4.22;;;4.22;;
54328;SDS011;40710;51.120;13.136;2023-07-16T13:03:30;2.93;;;2.93;;
54328;SDS011;40710;51.120;13.136;2023-07-16T13:05:54;3.32;;;3.32;;
54328;SDS011;40710;51.120;13.136;2023-07-16T13:08:19;3.05;;;3.05;;
54328;SDS011;40710;51.120;13.136;2023-07-16T13:10:43;3.18;;;3.18;;
54328;SDS011;40710;51.120;13.136;2023-07-16T13:13:08;3.02;;;3.02;;
54328;SDS011;40710;51.120;13.136;2023-07-16T13:15:33;3.11;;;3.11;;
54328;SDS011;40710;51.120;13.136;2023-07-16T13:17:57;2.91;;;2.91;;
54328;SDS011;40710;51.120;13.136;2023-07-16T13:20:22;3.37;;;3.37;;
54328;SDS011;40710;51.120;13.136;2023-07-16T13:22:48;2.98;;;2.98;;
54328;SDS011;40710;51.120;13.136;2023-07-16T13:25:12;2.96;;;2.96;;
54328;SDS011;40710;51.120;13.136;2023-07-16T13:27:37;4.45;;;4.45;;
54328;SDS011;40710;51.120;13.136;2023-07-16T13:30:01;3.39;;;3.39;;
54328;SDS011;40710;51.120;13.136;2023-07-16T13:32:26;2.86;;;2.86;;
54328;SDS011;40710;51.120;13.136;2023-07-16T13:34:50;2.92;;;2.92;;
54328;SDS011;40710;51.120;13.136;2023-07-16T13:37:15;3.41;;;3.41;;
54328;SDS011;40710;51.120;13.136;2023-07-16T13:39:40;3.87;;;3.87;;
54328;SDS011;40710;51.120;13.136;2023-07-16T13:42:04;2.95;;;2.95;;
54328;SDS011;40710;51.120;13.136;2023-07-16T13:44:30;3.03;;;3.03;;
54328;SDS011;40710;51.120;13.136;2023-07-16T13:46:54;3.16;;;3.16;;
54328;SDS011;40710;51.120;13.136;2023-07-16T13:49:19;3.27;;;3.27;;
54328;SDS011;40710;51.120;13.136;2023-07-16T13:51:43;3.33;;;3.33;;
54328;SDS011;40710;51.120;13.136;2023-07-16T13:54:09;2.79;;;2.79;;
54328;SDS011;40710;51.120;13.136;2023-07-16T13:56:34;2.95;;;2.95;;
54328;SDS011;40710;51.120;13.136;2023-07-16T13:59:00;3.00;;;3.00;;
54328;SDS011;40710;51.120;13.136;2023-07-16T14:01:24;2.83;;;2.83;;
54328;SDS011;40710;51.120;13.136;2023-07-16T14:03:49;2.90;;;2.90;;
54328;SDS011;40710;51.120;13.136;2023-07-16T14:06:13;2.85;;;2.85;;
54328;SDS011;40710;51.120;13.136;2023-07-16T14:08:38;2.84;;;2.84;;
54328;SDS011;40710;51.120;13.136;2023-07-16T14:11:03;3.09;;;3.09;;
54328;SDS011;40710;51.120;13.136;2023-07-16T14:13:28;3.00;;;3.00;;
54328;SDS011;40710;51.120;13.136;2023-07-16T14:15:52;3.25;;;3.25;;
54328;SDS011;40710;51.120;13.136;2023-07-16T14:18:17;3.39;;;3.39;;
54328;SDS011;40710;51.120;13.136;2023-07-16T14:20:41;4.02;;;4.02;;
54328;SDS011;40710;51.120;13.136;2023-07-16T14:23:06;2.87;;;2.87;;
54328;SDS011;40710;51.120;13.136;2023-07-16T14:25:30;3.27;;;3.27;;